Udine, Italy

11:41 PM CEST en Abril 23, 2017 (GMT +0200)
Viale Trieste | | Change Station

Alt 492 ft 46.12 °N, 13.21 °E | Updated 8 minutes ago

Nublado
Nublado
55.8 ° F
Sensación térmica 55.8 ° F
N
1.2
Viento Variable Viento desde SE
Gusts 3.1 mph

Hoy
Alta -- | Baja -- ° F
--% Posibilidad de precipitaciones
Ayer
Alta -- | Baja -- ° F
Precip. -- pul
Presión 30.15 pul
Visibilidad 6.2 Millas
Nubes Muy nublado 7000 ft
Punto de rocío 43 ° F
Humedad 62%
Precipitaciones 0.00 pul
Espesor de la nieve No disponible.
6:06 AM 8:04 PM
Creciente menguante, 9% visible
METAR LIPQ 232120Z VRB02KT 9999 BKN070 10/07 Q1021
Presión 30.15 pul
Visibilidad 6.2 Millas
Nubes Muy nublado 7000 ft
Punto de rocío 43 ° F
Humedad 62%
Precipitaciones 0.00 pul
Espesor de la nieve No disponible.
6:06 AM 8:04 PM
Creciente menguante, 9% visible
METAR LIPQ 232120Z VRB02KT 9999 BKN070 10/07 Q1021

Get Severe Weather Alerts

Thanks for signing up!

Be on the lookout for a verification email in your inbox.

You'll start receiving the daily forecast at 8 AM.

×

10-Day Weather Forecast

×

Almanac

Astronomía

Apr. 23, 2017 Salida Puesta
Hora real
Crepúsculo civil
Crepúsculo náutico
Crepúsculo astronómico
Luna
Horas de luz
Horas de luz
Tomorrow will be .
, % of the Moon is Illuminated

Extremos de hoy

Máximos del país Bajas del país

Community

WunderPhotos

WunderBlog® & News

Nearby

Calidad del aire

  Calidad del aire Índice AQ Contaminante
Not available.

Grosos de nieve

Estación Profundido Altura

Actividad de terremotos

Ciudad Distance Mag. Tiempo y dato
Magnitud mínima muestra es 2,5.

Temperaturas de aguas costeras

Lugar Temperatura

Stations

Estaciones meteorológicas cercanas

Ubicación de la estación Temp. Vientos helados Punto de rocío Humedad Viento Precip. Alt Actualizado Tipo